UBBB

Heydar Aliyev International Airport

Baku, Azerbaijan
TAF UBBB 162306Z 1700/1724 34020G30KT 9999 SCT012 BKN025 TX04/1710Z TN04/1703Z TEMPO 1700/1706 33026G36KT 5000 -SHRA SCT007 BKN025CB PROB40 TEMPO 1700/1706 TS BKN020CB BECMG 1706/1708 33030G40KT TEMPO 1708/1724 34040G50KT 2000 SHSNRA BKN004 BKN020CB OVC020
Issued Valid From Valid To
Jan-16 @ 23:06 UTC
(6 hours ago)
Jan-17 @ 00:00 UTC
(5 hours ago)
Jan-18 @ 00:00 UTC
(in 19 hours)
Jan-17 @ 00:00 to Jan-17 @ 06:00
TAF UBBB 162306Z 1700/1724 34020G30KT 9999 SCT012 BKN025 TX04/1710Z TN04/1703Z
Wind Visibility Clouds
340° at 20 knots
 Gusting to 30 knots
10,000+ meters
  • Scattered at 1,200' AGL
  • Broken at 2,500' AGL
Temporary Jan-17 @ 00:00 to Jan-17 @ 06:00
TEMPO 1700/1706 33026G36KT 5000 -SHRA SCT007 BKN025CB
Wind Visibility Clouds Conditions
330° at 26 knots
 Gusting to 36 knots
5,005 meters
  • Scattered at 700' AGL
  • Broken at 2,500' AGL
  • Light Rain
Temporary  (Probability 40%) Jan-17 @ 00:00 to Jan-17 @ 06:00
PROB40 TEMPO 1700/1706 TS BKN020CB
Clouds Conditions
  • Broken at 2,000' AGL
  • Thunderstorm
Becoming Jan-17 @ 06:00 to Jan-18 @ 00:00
BECMG 1706/1708 33030G40KT
Wind Visibility Clouds
330° at 30 knots
 Gusting to 40 knots
10,000+ meters
  • Scattered at 1,200' AGL
  • Broken at 2,500' AGL
Temporary Jan-17 @ 08:00 to Jan-18 @ 00:00
TEMPO 1708/1724 34040G50KT 2000 SHSNRA BKN004 BKN020CB OVC020
Wind Visibility Clouds Conditions
340° at 40 knots
 Gusting to 50 knots
1,996 meters
  • Broken at 400' AGL
  • Broken at 2,000' AGL
  • Overcast at 2,000' AGL
  • Snow
  • Rain
TAF UBBB 162306Z 1700/1724 34020G30KT 9999 SCT012 BKN025 TX04/1710Z TN04/1703Z TEMPO 1700/1706 33026G36KT 5000 -SHRA SCT007 BKN025CB PROB40 TEMPO 1700/1706 TS BKN020CB BECMG 1706/1708 33030G40KT TEMPO 1708/1724 34040G50KT 2000 SHSNRA BKN004 BKN020CB OVC020
Issued Jan-16 @ 23:06 UTC
(6 hours ago)
Valid From Jan-17 @ 00:00 UTC
(5 hours ago)
Valid To Jan-18 @ 00:00 UTC
(in 19 hours)
Jan-17 @ 00:00 - Jan-17 @ 06:00
Wind Visibility
340° at 20 knots
 Gusting to 30 knots
10,000+ meters
Clouds
  • Scattered at 1,200' AGL
  • Broken at 2,500' AGL
Temporary Jan-17 @ 00:00 - Jan-17 @ 06:00
Wind Visibility
330° at 26 knots
 Gusting to 36 knots
5,005 meters
Clouds
  • Scattered at 700' AGL
  • Broken at 2,500' AGL
Conditions
  • Light Rain
Probability 40% Temporary Jan-17 @ 00:00 - Jan-17 @ 06:00
Clouds
  • Broken at 2,000' AGL
Conditions
  • Thunderstorm
Becoming Jan-17 @ 06:00 - Jan-18 @ 00:00
Wind Visibility
330° at 30 knots
 Gusting to 40 knots
10,000+ meters
Clouds
  • Scattered at 1,200' AGL
  • Broken at 2,500' AGL
Temporary Jan-17 @ 08:00 - Jan-18 @ 00:00
Wind Visibility
340° at 40 knots
 Gusting to 50 knots
1,996 meters
Clouds
  • Broken at 400' AGL
  • Broken at 2,000' AGL
  • Overcast at 2,000' AGL
Conditions
  • Snow
  • Rain